createdAt,value
2023-03-06T00:18:04.281Z,4.24
2023-03-06T00:47:00.464Z,4.18
2023-03-06T01:16:12.495Z,4.06
2023-03-06T01:44:35.220Z,4.01
2023-03-06T02:13:31.947Z,3.75
2023-03-06T02:42:32.494Z,3.7
2023-03-06T03:11:28.117Z,3.45
2023-03-06T03:40:34.510Z,3.63
2023-03-06T04:09:36.798Z,3.66
2023-03-06T04:38:39.749Z,3.5
2023-03-06T05:06:56.605Z,3.25
2023-03-06T05:36:05.926Z,3.3
2023-03-06T06:04:24.874Z,3.37
2023-03-06T06:32:38.498Z,3.28
2023-03-06T07:01:29.759Z,3.3
2023-03-06T07:30:27.077Z,3.68
2023-03-06T07:59:25.080Z,3.9
2023-03-06T08:28:31.142Z,4.35
2023-03-06T08:57:38.401Z,4.57
2023-03-06T09:26:48.868Z,4.8
2023-03-06T09:54:58.826Z,5.05
2023-03-06T10:23:58.173Z,5.48
2023-03-06T10:52:02.416Z,5.48
2023-03-06T11:20:50.324Z,6.05
2023-03-06T11:48:51.363Z,6.82
2023-03-06T12:16:54.426Z,6.17
2023-03-06T12:45:10.947Z,6.54
2023-03-06T13:13:23.140Z,5.88
2023-03-06T13:41:43.766Z,5.57
2023-03-06T14:10:00.657Z,5.6
2023-03-06T14:38:28.003Z,5.91
2023-03-06T15:06:48.121Z,6.09
2023-03-06T15:34:55.431Z,5.72
2023-03-06T16:03:23.293Z,5.69
2023-03-06T16:31:44.925Z,5.51
2023-03-06T17:00:07.644Z,5.35
2023-03-06T17:28:16.535Z,4.68
2023-03-06T17:56:36.781Z,4.47
2023-03-06T18:24:53.731Z,4.59
2023-03-06T18:53:13.509Z,4.39
2023-03-06T19:21:31.788Z,4.35
2023-03-06T19:50:19.941Z,4.25
2023-03-06T20:19:11.205Z,4.25
2023-03-06T20:48:21.249Z,4.19
2023-03-06T21:17:14.186Z,4.23
2023-03-06T21:45:55.598Z,4.18
2023-03-06T22:14:43.928Z,4.05
2023-03-06T22:43:40.258Z,4.1
2023-03-06T23:12:36.430Z,4.05
2023-03-06T23:40:43.795Z,3.77
